Time;durP1;ratioP1;P1;durP2;ratioP2;P2;SDS_P1;SDS_P2;PMS_P1;PMS_P2;Temp;Humidity;BMP_temperature;BMP_pressure;BME280_temperature;BME280_humidity;BME280_pressure;Samples;Min_cycle;Max_cycle;Signal;HPM_P1;HPM_P2
2022/08/05 00:00:48;;;;;;;10.57;2.87;;;19.00;99.90;;;;;;5045226;28;20459;-73
2022/08/05 00:03:14;;;;;;;8.77;3.10;;;19.00;99.90;;;;;;5046077;28;20135;-73
2022/08/05 00:05:42;;;;;;;5.50;2.63;;;19.00;99.90;;;;;;5045492;28;20488;-73
2022/08/05 00:08:08;;;;;;;8.87;2.70;;;19.00;99.90;;;;;;5029081;28;20065;-73
2022/08/05 00:10:34;;;;;;;9.27;3.27;;;19.00;99.90;;;;;;5046147;28;20068;-74
2022/08/05 00:12:59;;;;;;;7.13;2.97;;;19.00;99.90;;;;;;5028820;28;21978;-73
2022/08/05 00:15:26;;;;;;;9.53;3.30;;;19.00;99.90;;;;;;5044284;28;20052;-73
2022/08/05 00:17:52;;;;;;;8.27;3.47;;;19.00;99.90;;;;;;5043297;28;20052;-74
2022/08/05 00:20:18;;;;;;;6.30;2.97;;;19.00;99.90;;;;;;5045995;28;20103;-73
2022/08/05 00:22:43;;;;;;;7.57;3.10;;;18.90;99.90;;;;;;5028416;28;20116;-73
2022/08/05 00:25:09;;;;;;;6.73;2.80;;;18.90;99.90;;;;;;5028947;28;20044;-73
2022/08/05 00:27:35;;;;;;;9.00;3.60;;;18.90;99.90;;;;;;5044970;28;20045;-73
2022/08/05 00:30:01;;;;;;;9.80;3.00;;;18.90;99.90;;;;;;5044689;28;20124;-73
2022/08/05 00:32:28;;;;;;;9.17;3.33;;;18.80;99.90;;;;;;5044226;28;20044;-73
2022/08/05 00:34:54;;;;;;;9.50;3.63;;;18.90;99.90;;;;;;5041531;28;20137;-73
2022/08/05 00:37:20;;;;;;;10.10;3.43;;;18.90;99.90;;;;;;5036864;28;20159;-73
2022/08/05 00:39:45;;;;;;;7.07;2.90;;;18.90;99.90;;;;;;5043136;28;20142;-73
2022/08/05 00:42:15;;;;;;;8.20;3.00;;;18.90;99.90;;;;;;5045641;28;20048;-73
2022/08/05 00:44:40;;;;;;;10.67;3.23;;;18.90;99.90;;;;;;5044731;28;20481;-73
2022/08/05 00:47:06;;;;;;;5.27;3.37;;;18.80;99.90;;;;;;5028588;28;20055;-73
2022/08/05 00:49:33;;;;;;;10.37;3.87;;;18.90;99.90;;;;;;5052740;28;20124;-73
2022/08/05 00:51:59;;;;;;;9.17;3.23;;;18.90;99.90;;;;;;5043787;28;20065;-73
2022/08/05 00:54:25;;;;;;;10.97;3.50;;;18.80;99.90;;;;;;5028296;28;20080;-73
2022/08/05 00:56:51;;;;;;;7.63;3.07;;;18.80;99.90;;;;;;5044324;28;20047;-73
2022/08/05 00:59:16;;;;;;;8.67;3.10;;;18.80;99.90;;;;;;5045206;28;20127;-73
2022/08/05 01:01:42;;;;;;;9.63;3.33;;;18.70;99.90;;;;;;5042843;28;20436;-73
2022/08/05 01:04:08;;;;;;;6.40;3.53;;;18.70;99.90;;;;;;5027984;28;20052;-73
2022/08/05 01:06:35;;;;;;;7.47;2.97;;;18.70;99.90;;;;;;5027801;28;20065;-73
2022/08/05 01:09:00;;;;;;;13.47;3.23;;;18.70;99.90;;;;;;5039440;28;20045;-73
2022/08/05 01:11:31;;;;;;;8.13;3.53;;;18.70;99.90;;;;;;5043040;28;20519;-73
2022/08/05 01:14:04;;;;;;;9.57;3.00;;;18.70;99.90;;;;;;5027992;28;20048;-73
2022/08/05 01:16:37;;;;;;;7.57;2.90;;;18.60;99.90;;;;;;5029031;28;20048;-73
2022/08/05 01:19:14;;;;;;;8.88;3.15;;;18.70;99.90;;;;;;5044191;28;20449;-73
2022/08/05 01:22:00;;;;;;;8.17;3.00;;;18.60;99.90;;;;;;5045092;28;20424;-73
2022/08/05 01:24:45;;;;;;;10.87;3.07;;;18.70;99.90;;;;;;5030113;28;20123;-73
2022/08/05 01:27:24;;;;;;;10.23;3.30;;;18.70;99.90;;;;;;5027566;28;20048;-73
2022/08/05 01:29:56;;;;;;;7.87;3.00;;;18.70;99.90;;;;;;5042532;28;20064;-74
2022/08/05 01:32:26;;;;;;;8.73;3.10;;;18.70;99.90;;;;;;5047585;28;20045;-73
2022/08/05 01:34:56;;;;;;;11.00;3.20;;;18.70;99.90;;;;;;5046653;28;20109;-73
2022/08/05 01:37:35;;;;;;;9.83;3.30;;;18.70;99.90;;;;;;5047767;28;20059;-73
2022/08/05 01:40:02;;;;;;;9.93;3.10;;;18.60;99.90;;;;;;5024777;28;20048;-73
2022/08/05 01:42:30;;;;;;;7.77;2.90;;;18.60;99.90;;;;;;5032265;28;20049;-73
2022/08/05 01:44:59;;;;;;;7.67;3.07;;;18.60;99.90;;;;;;5029346;28;20057;-73
2022/08/05 01:47:27;;;;;;;11.47;3.00;;;18.60;99.90;;;;;;5045500;28;20087;-73
2022/08/05 01:49:54;;;;;;;7.50;2.97;;;18.60;99.90;;;;;;5048228;28;20501;-73
2022/08/05 01:52:22;;;;;;;10.03;2.80;;;18.60;99.90;;;;;;5047714;28;20037;-73
2022/08/05 01:54:52;;;;;;;12.07;3.27;;;18.60;99.90;;;;;;5046905;28;20037;-73
2022/08/05 01:57:25;;;;;;;8.43;3.00;;;18.60;99.90;;;;;;5047207;28;20041;-73
2022/08/05 01:59:54;;;;;;;6.50;3.15;;;18.60;99.90;;;;;;5012883;28;20098;-73
2022/08/05 02:02:22;;;;;;;6.57;3.40;;;18.60;99.90;;;;;;5046895;28;20041;-73
2022/08/05 02:04:50;;;;;;;8.60;3.17;;;18.60;99.90;;;;;;5046846;28;20095;-73
2022/08/05 02:07:16;;;;;;;11.93;3.10;;;18.60;99.90;;;;;;5048326;28;20511;-73
2022/08/05 02:09:43;;;;;;;8.03;3.60;;;18.60;99.90;;;;;;5052834;28;20040;-73
2022/08/05 02:12:16;;;;;;;6.63;2.70;;;18.60;99.90;;;;;;5048481;28;20045;-73
2022/08/05 02:14:46;;;;;;;6.07;3.30;;;18.60;99.90;;;;;;5045435;28;20041;-73
2022/08/05 02:17:32;;;;;;;5.93;3.20;;;18.60;99.90;;;;;;5051273;28;20045;-73
2022/08/05 02:20:01;;;;;;;7.47;3.97;;;18.60;99.90;;;;;;5028519;28;20041;-73
2022/08/05 02:22:30;;;;;;;6.37;3.40;;;18.50;99.90;;;;;;5050062;28;20416;-73
2022/08/05 02:25:03;;;;;;;7.37;3.40;;;18.50;99.90;;;;;;5031333;28;20495;-73
2022/08/05 02:27:33;;;;;;;8.07;3.58;;;18.50;99.90;;;;;;5047702;28;20555;-73
2022/08/05 02:30:00;;;;;;;6.70;3.30;;;18.50;99.90;;;;;;5013811;28;20044;-73
2022/08/05 02:32:29;;;;;;;6.13;3.50;;;18.50;99.90;;;;;;5040794;28;20037;-73
2022/08/05 02:34:59;;;;;;;5.90;3.00;;;18.50;99.90;;;;;;5030705;28;20041;-73
2022/08/05 02:37:26;;;;;;;7.23;2.80;;;18.60;99.90;;;;;;5028086;28;20081;-73
2022/08/05 02:39:53;;;;;;;7.40;3.17;;;18.50;99.90;;;;;;5037895;28;20049;-73
2022/08/05 02:42:19;;;;;;;8.47;3.80;;;18.50;99.90;;;;;;5047123;28;20459;-73
2022/08/05 02:44:46;;;;;;;8.37;3.70;;;18.50;99.90;;;;;;5047110;28;20122;-73
2022/08/05 02:47:13;;;;;;;7.47;3.50;;;18.50;99.90;;;;;;5047095;28;20045;-73
2022/08/05 02:49:41;;;;;;;8.20;3.40;;;18.50;99.90;;;;;;5034237;28;20575;-73
2022/08/05 02:52:13;;;;;;;9.97;3.27;;;18.50;99.90;;;;;;5030003;28;20412;-73
2022/08/05 02:54:41;;;;;;;8.00;3.10;;;18.40;99.90;;;;;;5026663;28;20049;-73
2022/08/05 02:57:10;;;;;;;7.57;2.90;;;18.40;99.90;;;;;;5029118;28;20049;-73
2022/08/05 02:59:36;;;;;;;6.23;2.40;;;18.40;99.90;;;;;;5046988;28;20523;-73
2022/08/05 03:02:03;;;;;;;6.70;2.57;;;18.40;99.90;;;;;;5045194;28;20052;-73
2022/08/05 03:04:30;;;;;;;7.53;2.70;;;18.40;99.90;;;;;;5028476;28;20428;-73
2022/08/05 03:06:57;;;;;;;8.13;3.00;;;18.40;99.90;;;;;;5048591;28;20151;-73
2022/08/05 03:09:25;;;;;;;8.23;2.50;;;18.30;99.90;;;;;;5030116;28;20159;-73
2022/08/05 03:11:51;;;;;;;6.87;2.70;;;18.30;99.90;;;;;;5045205;28;20057;-73
2022/08/05 03:14:16;;;;;;;7.47;3.20;;;18.40;99.90;;;;;;5031176;28;20035;-73
2022/08/05 03:16:42;;;;;;;8.23;2.80;;;18.30;99.90;;;;;;5042611;28;20068;-73
2022/08/05 03:19:08;;;;;;;9.27;3.07;;;18.30;99.90;;;;;;5030575;28;20084;-73
2022/08/05 03:21:34;;;;;;;6.43;3.13;;;18.30;99.90;;;;;;5045500;28;20412;-73
2022/08/05 03:24:00;;;;;;;8.73;2.60;;;18.20;99.90;;;;;;5048229;28;20033;-73
2022/08/05 03:26:27;;;;;;;8.30;3.20;;;18.20;99.90;;;;;;5045894;28;20045;-73
2022/08/05 03:28:53;;;;;;;6.43;2.80;;;18.10;99.90;;;;;;5029218;28;20068;-73
2022/08/05 03:31:19;;;;;;;8.03;3.00;;;18.10;99.90;;;;;;5028576;28;20052;-73
2022/08/05 03:33:45;;;;;;;6.83;3.03;;;18.00;99.90;;;;;;5030017;28;20051;-73
2022/08/05 03:36:11;;;;;;;6.43;3.17;;;18.10;99.90;;;;;;5030594;28;20119;-73
2022/08/05 03:38:40;;;;;;;8.87;3.33;;;18.10;99.90;;;;;;5046378;28;20110;-73
2022/08/05 03:41:06;;;;;;;8.13;3.70;;;18.10;99.90;;;;;;5021088;28;20057;-73
2022/08/05 03:43:34;;;;;;;11.90;3.37;;;18.10;99.90;;;;;;5046431;28;20470;-73
2022/08/05 03:46:00;;;;;;;9.50;3.73;;;18.10;99.90;;;;;;5045121;28;20060;-73
2022/08/05 03:48:27;;;;;;;7.60;3.27;;;18.10;99.90;;;;;;5028849;28;20044;-73
2022/08/05 03:50:59;;;;;;;9.77;3.67;;;18.10;99.90;;;;;;5012787;28;20041;-73
2022/08/05 03:53:32;;;;;;;7.90;3.00;;;18.10;99.90;;;;;;5044710;28;20041;-73
2022/08/05 03:56:05;;;;;;;7.13;3.35;;;18.10;99.90;;;;;;5044314;28;20133;-73
2022/08/05 03:58:36;;;;;;;8.23;3.40;;;18.10;99.90;;;;;;5044675;28;20140;-73
2022/08/05 04:01:05;;;;;;;5.97;3.10;;;18.10;99.90;;;;;;5043744;28;20048;-73
2022/08/05 04:03:36;;;;;;;4.97;3.00;;;18.00;99.90;;;;;;5044683;28;20069;-73
2022/08/05 04:06:03;;;;;;;9.10;3.70;;;18.00;99.90;;;;;;5029954;28;20423;-73
2022/08/05 04:08:30;;;;;;;10.73;3.43;;;18.00;99.90;;;;;;5045412;28;20049;-73
2022/08/05 04:10:57;;;;;;;7.33;3.40;;;18.10;99.90;;;;;;5028346;28;20514;-73
2022/08/05 04:13:23;;;;;;;9.07;3.67;;;18.10;99.90;;;;;;5028763;28;20056;-73
2022/08/05 04:15:50;;;;;;;8.73;3.57;;;18.00;99.90;;;;;;5045479;28;20033;-73
2022/08/05 04:18:16;;;;;;;7.27;3.47;;;18.00;99.90;;;;;;5013172;28;20504;-73
2022/08/05 04:20:42;;;;;;;12.40;3.43;;;18.00;99.90;;;;;;5010822;28;20115;-73
2022/08/05 04:23:09;;;;;;;8.37;3.57;;;18.00;99.90;;;;;;5043826;28;20067;-73
2022/08/05 04:25:34;;;;;;;9.80;3.57;;;18.00;99.90;;;;;;5043860;28;20464;-73
2022/08/05 04:28:00;;;;;;;8.03;3.30;;;18.00;99.90;;;;;;5014701;28;20136;-73
2022/08/05 04:30:26;;;;;;;6.63;3.70;;;18.00;99.90;;;;;;5045431;28;20412;-73
2022/08/05 04:32:53;;;;;;;7.20;3.13;;;18.00;99.90;;;;;;5027921;28;20051;-73
2022/08/05 04:35:19;;;;;;;9.30;3.30;;;18.00;99.90;;;;;;5042899;28;20044;-73
2022/08/05 04:37:44;;;;;;;8.63;3.37;;;18.00;99.90;;;;;;5043621;28;20041;-73
2022/08/05 04:40:11;;;;;;;6.73;3.30;;;18.00;99.90;;;;;;5028296;28;20048;-73
2022/08/05 04:42:36;;;;;;;7.67;3.40;;;18.00;99.90;;;;;;5038205;28;20569;-73
2022/08/05 04:45:03;;;;;;;10.07;3.53;;;18.00;99.90;;;;;;5012642;28;20041;-73
2022/08/05 04:47:29;;;;;;;5.43;3.20;;;17.90;99.90;;;;;;5017300;28;20466;-73
2022/08/05 04:49:56;;;;;;;5.53;3.07;;;18.00;99.90;;;;;;5028634;28;20129;-73
2022/08/05 04:52:21;;;;;;;8.80;3.47;;;18.00;99.90;;;;;;5044806;28;20946;-73
2022/08/05 04:54:47;;;;;;;8.27;3.60;;;18.00;99.90;;;;;;5028100;28;20037;-73
2022/08/05 04:57:13;;;;;;;7.23;2.80;;;18.00;99.90;;;;;;5029253;28;20041;-73
2022/08/05 04:59:38;;;;;;;6.80;3.23;;;18.00;99.90;;;;;;5032418;28;20408;-73
2022/08/05 05:02:04;;;;;;;5.17;3.53;;;18.00;99.90;;;;;;5048284;28;20082;-73
2022/08/05 05:04:30;;;;;;;6.47;3.20;;;18.00;99.90;;;;;;5047981;28;20060;-73
2022/08/05 05:06:57;;;;;;;10.03;3.73;;;18.10;99.90;;;;;;5049007;28;20049;-74
2022/08/05 05:09:23;;;;;;;5.50;3.20;;;18.10;99.90;;;;;;5048529;28;20128;-73
2022/08/05 05:11:48;;;;;;;6.53;3.30;;;18.10;99.90;;;;;;5032103;28;20551;-73
2022/08/05 05:14:14;;;;;;;8.17;3.53;;;18.10;99.90;;;;;;5047824;28;20033;-73
2022/08/05 05:16:40;;;;;;;6.87;3.67;;;18.10;99.90;;;;;;5049476;28;20045;-73
2022/08/05 05:19:06;;;;;;;7.23;3.07;;;18.20;99.90;;;;;;5032345;28;20131;-73
2022/08/05 05:21:31;;;;;;;9.40;3.37;;;18.10;99.90;;;;;;5049632;28;20052;-73
2022/08/05 05:23:58;;;;;;;8.10;3.40;;;18.20;99.90;;;;;;5032465;28;20049;-73
2022/08/05 05:26:24;;;;;;;7.90;3.50;;;18.20;99.90;;;;;;5053109;28;20044;-73
2022/08/05 05:28:50;;;;;;;7.83;3.60;;;18.20;99.90;;;;;;5047265;28;20044;-74
2022/08/05 05:31:15;;;;;;;9.37;3.50;;;18.20;99.90;;;;;;5064827;28;20080;-74
2022/08/05 05:33:41;;;;;;;7.20;3.40;;;18.30;99.90;;;;;;5048748;28;20508;-74
2022/08/05 05:36:08;;;;;;;8.87;3.50;;;18.30;99.90;;;;;;5048120;28;20571;-74
2022/08/05 05:38:33;;;;;;;5.67;3.50;;;18.30;99.90;;;;;;5048508;28;20045;-74
2022/08/05 05:41:00;;;;;;;6.50;3.17;;;18.30;99.90;;;;;;5051990;28;20524;-74
2022/08/05 05:43:26;;;;;;;7.83;3.43;;;18.30;99.90;;;;;;5025959;28;20131;-74
2022/08/05 05:45:52;;;;;;;8.33;3.50;;;18.30;99.90;;;;;;5030899;28;20124;-73
2022/08/05 05:48:17;;;;;;;7.67;3.50;;;18.30;99.90;;;;;;5032556;28;20106;-75
2022/08/05 05:50:43;;;;;;;7.53;3.70;;;18.30;99.90;;;;;;5034200;28;20073;-74
2022/08/05 05:53:10;;;;;;;9.97;4.07;;;18.30;99.90;;;;;;5043948;28;20048;-74
2022/08/05 05:55:36;;;;;;;9.63;4.37;;;18.30;99.90;;;;;;5045592;28;20502;-74
2022/08/05 05:58:03;;;;;;;9.20;4.10;;;18.30;99.90;;;;;;5045194;28;20045;-74
2022/08/05 06:00:28;;;;;;;8.07;3.67;;;18.30;99.90;;;;;;5035141;28;20072;-74
2022/08/05 06:02:54;;;;;;;8.90;4.03;;;18.20;99.90;;;;;;5030495;28;20492;-74
2022/08/05 06:05:20;;;;;;;10.77;3.93;;;18.20;99.90;;;;;;5029425;28;20048;-74
2022/08/05 06:07:48;;;;;;;5.53;3.53;;;18.20;99.90;;;;;;5035261;28;20165;-75
2022/08/05 06:10:14;;;;;;;8.40;4.13;;;18.20;99.90;;;;;;5049044;28;20523;-75
2022/08/05 06:12:41;;;;;;;7.43;3.80;;;18.20;99.90;;;;;;5030898;28;20484;-74
2022/08/05 06:15:09;;;;;;;6.60;3.27;;;18.30;99.90;;;;;;5029095;28;20045;-74
2022/08/05 06:17:35;;;;;;;7.53;3.67;;;18.30;99.90;;;;;;5044116;28;20500;-74
2022/08/05 06:20:01;;;;;;;6.87;3.90;;;18.40;99.90;;;;;;5045770;28;20047;-74
2022/08/05 06:22:28;;;;;;;6.47;3.57;;;18.50;99.90;;;;;;5029256;28;20036;-74
2022/08/05 06:24:54;;;;;;;9.03;4.13;;;18.50;99.90;;;;;;5044855;28;20048;-75
2022/08/05 06:27:20;;;;;;;8.80;3.63;;;18.70;99.90;;;;;;5029777;28;20052;-75
2022/08/05 06:29:45;;;;;;;10.27;3.90;;;18.70;99.90;;;;;;5029629;28;20123;-74
2022/08/05 06:32:13;;;;;;;9.13;3.80;;;18.70;99.90;;;;;;5029220;28;20045;-75
2022/08/05 06:34:39;;;;;;;7.23;3.77;;;18.70;99.90;;;;;;5046190;28;20053;-75
2022/08/05 06:37:05;;;;;;;8.07;3.17;;;18.80;99.90;;;;;;5047963;28;20496;-74
2022/08/05 06:39:31;;;;;;;7.80;3.17;;;18.80;99.90;;;;;;5029552;28;20135;-75
2022/08/05 06:42:00;;;;;;;5.67;3.03;;;18.90;99.90;;;;;;5046991;28;20465;-75
2022/08/05 06:44:27;;;;;;;6.73;3.33;;;18.90;99.90;;;;;;5004327;28;20482;-76
2022/08/05 06:46:53;;;;;;;6.73;3.17;;;18.90;99.90;;;;;;5061623;28;20041;-76
2022/08/05 06:49:20;;;;;;;8.97;3.40;;;18.90;99.90;;;;;;5048452;28;20072;-76
2022/08/05 06:51:46;;;;;;;7.07;3.57;;;19.00;99.90;;;;;;5030727;28;20064;-75
2022/08/05 06:54:12;;;;;;;9.20;3.10;;;19.10;99.90;;;;;;5047469;28;20519;-76
2022/08/05 06:56:38;;;;;;;8.50;3.40;;;19.10;99.90;;;;;;5038436;28;20079;-77
2022/08/05 06:59:05;;;;;;;7.13;3.00;;;19.10;99.90;;;;;;5045385;28;20041;-76
2022/08/05 07:01:30;;;;;;;6.80;3.07;;;19.20;99.90;;;;;;5044946;28;20045;-77
2022/08/05 07:03:56;;;;;;;7.40;2.87;;;19.20;99.90;;;;;;5029070;28;20515;-77
2022/08/05 07:06:23;;;;;;;4.73;2.77;;;19.20;99.90;;;;;;5042896;28;20053;-77
2022/08/05 07:08:49;;;;;;;8.30;2.60;;;19.30;99.90;;;;;;5046492;28;20118;-76
2022/08/05 07:11:15;;;;;;;7.50;2.87;;;19.30;99.90;;;;;;5030342;28;20052;-76
2022/08/05 07:19:10;;;;;;;7.50;2.90;;;19.60;99.90;;;;;;5044608;28;20083;-75
2022/08/05 07:21:37;;;;;;;5.47;2.33;;;19.70;99.90;;;;;;5029770;28;20053;-76
2022/08/05 07:24:04;;;;;;;3.87;2.00;;;19.80;99.90;;;;;;5043331;28;20029;-75
2022/08/05 07:26:30;;;;;;;6.87;2.00;;;20.00;99.90;;;;;;5025182;28;20041;-76
2022/08/05 07:28:55;;;;;;;3.67;1.47;;;20.00;99.90;;;;;;5040797;28;20446;-76
2022/08/05 07:31:21;;;;;;;6.40;2.60;;;20.10;99.90;;;;;;5024410;28;20055;-76
2022/08/05 07:33:47;;;;;;;6.17;2.10;;;20.20;99.90;;;;;;5025301;28;20412;-76
2022/08/05 07:36:14;;;;;;;4.83;1.70;;;20.20;99.90;;;;;;5025864;28;20049;-76
2022/08/05 07:38:41;;;;;;;6.03;1.57;;;20.30;99.90;;;;;;5010580;28;20411;-77
2022/08/05 07:41:09;;;;;;;6.70;1.50;;;20.30;99.90;;;;;;5039805;28;20136;-76
2022/08/05 07:43:34;;;;;;;5.25;1.60;;;20.40;99.90;;;;;;5009243;28;21268;-76
2022/08/05 07:46:00;;;;;;;4.50;1.60;;;20.50;99.90;;;;;;5012611;28;20519;-76
2022/08/05 07:48:26;;;;;;;3.67;1.57;;;20.60;99.90;;;;;;5015252;28;20507;-77
2022/08/05 07:50:53;;;;;;;5.23;1.33;;;20.80;99.90;;;;;;5025445;28;20791;-76
2022/08/05 07:53:19;;;;;;;2.30;1.10;;;20.80;99.90;;;;;;5027258;28;20079;-77
2022/08/05 07:55:46;;;;;;;3.63;1.20;;;21.00;99.90;;;;;;5025554;28;20064;-77
2022/08/05 07:58:12;;;;;;;3.67;1.35;;;21.10;99.90;;;;;;5003273;28;20500;-76
2022/08/05 08:00:37;;;;;;;3.47;1.10;;;21.20;99.90;;;;;;5010984;28;20049;-77
2022/08/05 08:03:08;;;;;;;6.05;1.63;;;21.30;99.90;;;;;;5026358;28;20714;-77
2022/08/05 08:05:34;;;;;;;2.97;1.23;;;21.40;99.90;;;;;;5026404;28;20136;-77
2022/08/05 08:08:00;;;;;;;3.92;1.20;;;21.60;99.90;;;;;;5010919;28;20492;-77
2022/08/05 08:10:26;;;;;;;2.75;1.00;;;21.70;99.90;;;;;;5043702;28;20131;-76
2022/08/05 08:12:53;;;;;;;5.70;1.38;;;21.70;99.90;;;;;;5022286;28;20958;-76
2022/08/05 08:15:19;;;;;;;7.15;1.38;;;21.80;99.90;;;;;;5041445;28;20057;-76
2022/08/05 08:17:45;;;;;;;2.92;1.00;;;21.90;99.90;;;;;;5042597;28;20047;-76
2022/08/05 08:20:11;;;;;;;5.47;1.25;;;22.00;99.90;;;;;;5027136;28;20491;-76
2022/08/05 08:22:37;;;;;;;3.42;1.00;;;22.00;99.90;;;;;;5041505;28;20048;-75
2022/08/05 08:25:04;;;;;;;3.58;0.88;;;21.90;99.90;;;;;;5041515;28;20044;-77
2022/08/05 08:27:30;;;;;;;3.42;0.98;;;21.80;99.90;;;;;;5025341;28;20115;-77
2022/08/05 08:29:57;;;;;;;3.35;1.02;;;21.80;99.90;;;;;;5023776;28;20136;-77
2022/08/05 08:32:23;;;;;;;4.35;1.05;;;21.70;99.90;;;;;;5040187;28;20061;-77
2022/08/05 08:34:49;;;;;;;3.80;1.13;;;21.70;99.90;;;;;;5039189;28;20456;-76
2022/08/05 08:37:15;;;;;;;2.50;0.75;;;21.70;99.90;;;;;;5057378;28;20140;-76
2022/08/05 08:39:41;;;;;;;3.67;1.05;;;21.80;99.90;;;;;;5041971;28;20044;-75
2022/08/05 08:42:08;;;;;;;7.55;1.20;;;21.90;99.90;;;;;;5025617;28;20679;-76
2022/08/05 08:44:35;;;;;;;4.55;1.08;;;22.00;99.90;;;;;;5023732;28;20518;-77
2022/08/05 08:47:04;;;;;;;3.05;1.05;;;21.90;99.90;;;;;;5036572;28;20037;-76
2022/08/05 08:49:33;;;;;;;3.40;1.00;;;22.00;99.90;;;;;;5020874;28;20088;-77
2022/08/05 08:52:07;;;;;;;5.30;1.20;;;21.90;99.90;;;;;;5040542;28;20073;-77
2022/08/05 08:54:34;;;;;;;3.38;1.15;;;21.90;99.90;;;;;;5022733;28;20045;-77
2022/08/05 08:57:00;;;;;;;4.32;1.10;;;22.00;99.90;;;;;;5022384;28;20045;-77
2022/08/05 08:59:27;;;;;;;3.38;0.90;;;22.00;99.90;;;;;;5023822;28;20136;-75
2022/08/05 09:01:53;;;;;;;3.13;0.98;;;22.10;99.90;;;;;;5026813;28;20067;-74
2022/08/05 09:04:21;;;;;;;4.78;0.95;;;22.20;99.90;;;;;;5022362;28;20044;-75
2022/08/05 09:06:47;;;;;;;2.92;0.90;;;22.30;99.90;;;;;;5039275;28;20519;-76
2022/08/05 09:09:15;;;;;;;3.65;0.77;;;22.40;99.90;;;;;;5036660;28;20051;-76
2022/08/05 09:11:40;;;;;;;2.17;0.60;;;22.50;99.90;;;;;;5056672;28;20434;-75
2022/08/05 09:14:07;;;;;;;2.83;0.88;;;22.50;99.90;;;;;;5022150;28;20055;-75
2022/08/05 09:16:33;;;;;;;1.83;0.57;;;22.60;99.90;;;;;;5023454;28;20610;-75
2022/08/05 09:18:59;;;;;;;2.70;0.85;;;22.70;99.90;;;;;;5038395;28;20125;-74
2022/08/05 09:21:27;;;;;;;2.97;0.70;;;22.70;99.90;;;;;;5037940;28;20116;-76
2022/08/05 09:24:03;;;;;;;2.92;0.70;;;22.70;99.90;;;;;;5024282;28;20122;-75
2022/08/05 09:26:29;;;;;;;3.00;0.70;;;22.80;99.90;;;;;;5028276;28;20412;-75
2022/08/05 09:29:00;;;;;;;7.13;0.93;;;22.80;99.90;;;;;;5018788;28;20041;-76
2022/08/05 09:31:26;;;;;;;2.47;1.00;;;22.90;99.50;;;;;;5022172;28;20489;-75
2022/08/05 09:33:53;;;;;;;6.70;1.05;;;22.80;99.00;;;;;;5037205;28;20037;-76
2022/08/05 09:36:20;;;;;;;2.90;0.73;;;22.60;98.30;;;;;;5044617;28;20569;-77
2022/08/05 09:38:58;;;;;;;3.13;0.70;;;22.50;98.30;;;;;;5024168;28;20500;-75
2022/08/05 09:41:25;;;;;;;2.05;0.63;;;22.40;98.40;;;;;;5026990;28;20056;-76
2022/08/05 09:43:51;;;;;;;2.53;0.52;;;22.50;98.80;;;;;;5047982;28;20475;-76
2022/08/05 09:46:26;;;;;;;3.88;0.70;;;22.60;97.80;;;;;;5029039;28;20044;-76
2022/08/05 09:48:53;;;;;;;4.63;0.85;;;22.70;96.50;;;;;;5013265;28;20115;-77
2022/08/05 09:51:30;;;;;;;4.63;0.73;;;22.90;96.70;;;;;;5030793;28;20049;-74
2022/08/05 09:53:58;;;;;;;2.00;0.60;;;23.10;96.70;;;;;;5019087;28;20041;-76
2022/08/05 09:56:25;;;;;;;1.65;0.73;;;23.70;96.60;;;;;;5012593;28;20052;-74
2022/08/05 09:58:59;;;;;;;1.95;0.55;;;24.80;94.20;;;;;;5027633;28;20518;-74
2022/08/05 10:01:25;;;;;;;3.15;0.60;;;25.60;93.20;;;;;;5027284;28;20053;-73
2022/08/05 10:03:58;;;;;;;2.25;0.70;;;26.60;91.30;;;;;;5012618;28;20052;-76
2022/08/05 10:06:24;;;;;;;1.85;0.50;;;27.20;89.20;;;;;;5029778;28;20139;-78
2022/08/05 10:08:50;;;;;;;3.28;0.60;;;27.40;89.00;;;;;;5010074;28;20048;-75
2022/08/05 10:11:18;;;;;;;3.00;0.65;;;27.50;87.70;;;;;;5028718;28;20051;-74
2022/08/05 10:13:43;;;;;;;2.42;0.60;;;27.90;87.50;;;;;;5012213;28;20673;-76
2022/08/05 10:16:29;;;;;;;3.17;0.70;;;28.10;85.70;;;;;;5009506;28;20195;-77
2022/08/05 10:18:55;;;;;;;1.90;0.70;;;28.00;83.60;;;;;;5027378;28;20041;-75
2022/08/05 10:21:21;;;;;;;3.95;0.68;;;28.40;83.50;;;;;;5028049;28;20503;-73
2022/08/05 10:23:46;;;;;;;2.22;0.63;;;28.70;82.00;;;;;;5029909;28;20138;-75
2022/08/05 10:26:13;;;;;;;2.13;0.60;;;29.20;81.50;;;;;;5029081;28;20492;-76
2022/08/05 10:28:40;;;;;;;1.42;0.60;;;29.90;79.40;;;;;;5024791;28;20056;-75
2022/08/05 10:31:06;;;;;;;1.55;0.60;;;30.50;75.50;;;;;;5004189;28;20052;-73
2022/08/05 10:33:33;;;;;;;3.70;0.63;;;30.40;71.70;;;;;;5029187;28;20121;-73
2022/08/05 10:36:03;;;;;;;3.08;0.50;;;30.10;67.70;;;;;;5027808;28;20102;-74
2022/08/05 10:38:30;;;;;;;2.80;0.50;;;29.90;66.40;;;;;;5009115;28;20048;-75
2022/08/05 10:41:06;;;;;;;2.25;0.60;;;29.70;66.10;;;;;;5026935;28;20048;-74
2022/08/05 10:43:42;;;;;;;1.63;0.60;;;29.70;63.00;;;;;;5029441;28;20099;-75
2022/08/05 10:46:12;;;;;;;3.40;0.47;;;29.80;65.00;;;;;;5024231;28;20175;-74
2022/08/05 10:48:39;;;;;;;1.63;0.57;;;29.80;60.90;;;;;;5013762;28;20053;-75
2022/08/05 10:51:07;;;;;;;2.83;0.45;;;29.50;61.00;;;;;;5017232;28;20041;-76
2022/08/05 10:53:39;;;;;;;1.92;0.47;;;29.50;62.90;;;;;;5025726;28;20047;-76
2022/08/05 10:56:07;;;;;;;4.90;0.80;;;29.60;61.50;;;;;;5024990;28;21268;-75
2022/08/05 10:58:34;;;;;;;2.00;0.45;;;29.70;60.30;;;;;;5008821;28;20131;-76
2022/08/05 11:01:05;;;;;;;2.60;0.40;;;29.70;56.60;;;;;;5008813;28;20056;-75
2022/08/05 11:03:32;;;;;;;1.90;0.50;;;29.50;52.20;;;;;;5024122;28;20083;-76
2022/08/05 11:06:07;;;;;;;0.93;0.50;;;29.30;50.80;;;;;;5027456;28;20195;-76
2022/08/05 11:08:32;;;;;;;2.67;0.40;;;29.10;51.80;;;;;;5034069;28;20120;-76
2022/08/05 11:11:32;;;;;;;1.23;0.35;;;28.90;51.10;;;;;;5039061;28;20160;-77
2022/08/05 11:14:00;;;;;;;3.05;0.50;;;28.90;50.50;;;;;;5035153;28;20036;-75
2022/08/05 11:16:25;;;;;;;1.42;0.30;;;28.90;52.40;;;;;;5038559;28;20053;-75
2022/08/05 11:19:26;;;;;;;1.33;0.40;;;29.10;50.00;;;;;;5013000;28;20045;-77
2022/08/05 11:21:53;;;;;;;2.60;0.40;;;28.90;47.70;;;;;;5045569;28;20049;-75
2022/08/05 11:24:20;;;;;;;1.35;0.40;;;28.70;47.60;;;;;;5032728;28;20048;-75
2022/08/05 11:26:47;;;;;;;1.95;0.40;;;28.70;48.50;;;;;;5045154;28;20518;-77
2022/08/05 11:29:34;;;;;;;1.58;0.40;;;28.70;48.70;;;;;;5028479;28;20051;-75
2022/08/05 11:32:26;;;;;;;1.88;0.45;;;28.80;48.70;;;;;;5023063;28;20068;-77
2022/08/05 11:34:54;;;;;;;3.05;0.50;;;28.80;44.70;;;;;;5034107;28;20044;-77
2022/08/05 11:38:05;;;;;;;2.03;0.30;;;28.70;46.00;;;;;;5003069;28;20535;-75
2022/08/05 11:41:00;;;;;;;1.90;0.57;;;28.30;44.70;;;;;;5064068;28;20101;-76
2022/08/05 11:43:26;;;;;;;;;;;28.10;46.40;;;;;;5043318;28;20036;-78
2022/08/05 11:45:52;;;;;;;4.68;0.30;;;27.90;48.00;;;;;;5015155;28;20380;-76
2022/08/05 11:48:18;;;;;;;1.48;0.35;;;27.90;48.80;;;;;;5042375;28;20049;-75
2022/08/05 11:50:46;;;;;;;0.98;0.40;;;27.60;48.20;;;;;;5046138;28;20071;-77
2022/08/05 11:53:12;;;;;;;0.50;0.30;;;27.50;48.60;;;;;;5039574;28;20454;-75
2022/08/05 11:55:52;;;;;;;1.20;0.30;;;27.40;49.80;;;;;;5029851;28;20142;-76
2022/08/05 11:58:24;;;;;;;3.63;0.70;;;27.20;50.90;;;;;;5042434;28;20070;-78
2022/08/05 12:01:01;;;;;;;4.28;0.50;;;26.90;50.90;;;;;;5031960;28;20123;-75
2022/08/05 12:03:26;;;;;;;2.10;0.40;;;26.60;50.90;;;;;;5043482;28;20132;-77
2022/08/05 12:05:58;;;;;;;2.30;0.38;;;26.30;53.10;;;;;;5024206;28;20123;-74
2022/08/05 12:08:24;;;;;;;0.65;0.32;;;26.40;53.60;;;;;;5040152;28;20443;-74
2022/08/05 12:10:50;;;;;;;2.83;0.45;;;26.40;53.60;;;;;;5042190;28;20120;-74
2022/08/05 12:13:16;;;;;;;1.10;0.50;;;26.50;52.80;;;;;;5033079;28;20040;-75
2022/08/05 12:15:42;;;;;;;2.30;0.40;;;26.50;54.30;;;;;;5023053;28;20044;-74
2022/08/05 12:18:08;;;;;;;1.45;0.43;;;26.60;55.60;;;;;;5043729;28;20523;-78
2022/08/05 12:20:37;;;;;;;1.38;0.68;;;26.90;56.20;;;;;;5026908;28;20072;-77
2022/08/05 12:23:11;;;;;;;2.00;0.38;;;27.00;55.60;;;;;;5017289;28;20114;-76
2022/08/05 12:25:48;;;;;;;4.07;0.68;;;27.20;56.70;;;;;;5024917;28;20079;-76
2022/08/05 12:28:29;;;;;;;2.70;0.50;;;27.50;54.00;;;;;;5043095;28;20156;-76
2022/08/05 12:30:56;;;;;;;4.68;0.60;;;27.60;55.30;;;;;;5039185;28;20052;-75
2022/08/05 12:33:21;;;;;;;1.50;0.32;;;27.70;55.60;;;;;;5036213;28;20417;-76
2022/08/05 12:35:47;;;;;;;2.53;0.50;;;27.50;55.00;;;;;;5046077;28;20048;-76
2022/08/05 12:38:14;;;;;;;1.50;0.47;;;27.20;55.00;;;;;;5044039;28;20045;-76
2022/08/05 12:40:40;;;;;;;1.75;0.43;;;27.20;54.70;;;;;;5036199;28;20148;-76
2022/08/05 12:43:06;;;;;;;1.17;0.40;;;27.40;52.70;;;;;;5044668;28;20127;-77
2022/08/05 12:45:32;;;;;;;2.35;0.50;;;27.50;51.90;;;;;;5026790;28;20057;-75
2022/08/05 12:47:57;;;;;;;3.45;0.50;;;27.20;52.00;;;;;;5044282;28;20045;-76
2022/08/05 12:50:23;;;;;;;4.00;0.43;;;26.50;53.00;;;;;;5036489;28;20520;-75
2022/08/05 12:53:00;;;;;;;1.20;0.30;;;25.90;54.80;;;;;;5015748;28;20689;-75
2022/08/05 12:55:29;;;;;;;1.98;0.47;;;25.50;56.10;;;;;;5028160;28;20046;-76